sensor_id;sensor_type;location;lat;lon;timestamp;P1;durP1;ratioP1;P2;durP2;ratioP2
66575;SDS011;53428;47.686;16.584;2022-11-21T00:02:02;46.25;;;20.88;;
66575;SDS011;53428;47.686;16.584;2022-11-21T00:07:01;44.85;;;19.23;;
66575;SDS011;53428;47.686;16.584;2022-11-21T00:12:00;50.30;;;20.63;;
66575;SDS011;53428;47.686;16.584;2022-11-21T00:17:00;46.03;;;20.75;;
66575;SDS011;53428;47.686;16.584;2022-11-21T00:21:59;41.90;;;19.55;;
66575;SDS011;53428;47.686;16.584;2022-11-21T00:26:58;44.72;;;19.20;;
66575;SDS011;53428;47.686;16.584;2022-11-21T00:31:58;36.08;;;17.70;;
66575;SDS011;53428;47.686;16.584;2022-11-21T00:36:57;41.00;;;18.10;;
66575;SDS011;53428;47.686;16.584;2022-11-21T00:41:57;45.85;;;16.27;;
66575;SDS011;53428;47.686;16.584;2022-11-21T00:46:56;36.22;;;15.00;;
66575;SDS011;53428;47.686;16.584;2022-11-21T00:51:55;29.02;;;13.20;;
66575;SDS011;53428;47.686;16.584;2022-11-21T00:56:55;26.98;;;13.15;;
66575;SDS011;53428;47.686;16.584;2022-11-21T01:01:54;24.00;;;12.20;;
66575;SDS011;53428;47.686;16.584;2022-11-21T01:06:54;26.08;;;11.48;;
66575;SDS011;53428;47.686;16.584;2022-11-21T01:11:54;20.65;;;10.02;;
66575;SDS011;53428;47.686;16.584;2022-11-21T01:16:54;26.60;;;12.13;;
66575;SDS011;53428;47.686;16.584;2022-11-21T01:21:53;25.40;;;12.40;;
66575;SDS011;53428;47.686;16.584;2022-11-21T01:26:53;25.80;;;12.88;;
66575;SDS011;53428;47.686;16.584;2022-11-21T01:31:53;26.92;;;12.20;;
66575;SDS011;53428;47.686;16.584;2022-11-21T01:36:52;24.48;;;11.82;;
66575;SDS011;53428;47.686;16.584;2022-11-21T01:41:52;19.85;;;10.10;;
66575;SDS011;53428;47.686;16.584;2022-11-21T01:46:51;20.50;;;8.93;;
66575;SDS011;53428;47.686;16.584;2022-11-21T01:57:07;15.52;;;7.75;;
66575;SDS011;53428;47.686;16.584;2022-11-21T02:02:12;17.20;;;8.93;;
66575;SDS011;53428;47.686;16.584;2022-11-21T02:07:15;12.48;;;7.47;;
66575;SDS011;53428;47.686;16.584;2022-11-21T02:12:20;15.48;;;7.95;;
66575;SDS011;53428;47.686;16.584;2022-11-21T02:17:25;13.43;;;6.68;;
66575;SDS011;53428;47.686;16.584;2022-11-21T02:22:42;12.00;;;5.45;;
66575;SDS011;53428;47.686;16.584;2022-11-21T02:27:43;14.30;;;6.95;;
66575;SDS011;53428;47.686;16.584;2022-11-21T02:32:44;8.70;;;5.07;;
66575;SDS011;53428;47.686;16.584;2022-11-21T02:37:47;7.40;;;4.63;;
66575;SDS011;53428;47.686;16.584;2022-11-21T02:48:33;8.80;;;5.00;;
66575;SDS011;53428;47.686;16.584;2022-11-21T02:53:34;10.25;;;5.05;;
66575;SDS011;53428;47.686;16.584;2022-11-21T02:58:33;7.47;;;4.63;;
66575;SDS011;53428;47.686;16.584;2022-11-21T03:03:33;9.63;;;5.22;;
66575;SDS011;53428;47.686;16.584;2022-11-21T03:08:32;7.25;;;4.07;;
66575;SDS011;53428;47.686;16.584;2022-11-21T03:13:32;9.10;;;4.95;;
66575;SDS011;53428;47.686;16.584;2022-11-21T03:18:31;8.13;;;4.60;;
66575;SDS011;53428;47.686;16.584;2022-11-21T03:23:35;8.93;;;4.57;;
66575;SDS011;53428;47.686;16.584;2022-11-21T03:28:34;12.57;;;4.70;;
66575;SDS011;53428;47.686;16.584;2022-11-21T03:33:34;12.07;;;6.03;;
66575;SDS011;53428;47.686;16.584;2022-11-21T03:38:33;11.63;;;5.85;;
66575;SDS011;53428;47.686;16.584;2022-11-21T03:43:33;14.63;;;7.43;;
66575;SDS011;53428;47.686;16.584;2022-11-21T03:48:32;12.98;;;5.90;;
66575;SDS011;53428;47.686;16.584;2022-11-21T03:53:31;10.13;;;5.72;;
66575;SDS011;53428;47.686;16.584;2022-11-21T03:58:31;12.80;;;5.82;;
66575;SDS011;53428;47.686;16.584;2022-11-21T04:03:30;8.70;;;5.07;;
66575;SDS011;53428;47.686;16.584;2022-11-21T04:08:30;7.70;;;4.82;;
66575;SDS011;53428;47.686;16.584;2022-11-21T04:13:30;11.55;;;6.30;;
66575;SDS011;53428;47.686;16.584;2022-11-21T04:18:29;8.82;;;5.00;;
66575;SDS011;53428;47.686;16.584;2022-11-21T04:23:29;9.60;;;5.88;;
66575;SDS011;53428;47.686;16.584;2022-11-21T04:28:28;18.33;;;8.27;;
66575;SDS011;53428;47.686;16.584;2022-11-21T04:33:28;23.58;;;10.80;;
66575;SDS011;53428;47.686;16.584;2022-11-21T04:38:27;30.73;;;13.23;;
66575;SDS011;53428;47.686;16.584;2022-11-21T04:43:26;30.73;;;15.40;;
66575;SDS011;53428;47.686;16.584;2022-11-21T04:48:26;34.42;;;16.90;;
66575;SDS011;53428;47.686;16.584;2022-11-21T04:53:25;34.10;;;15.38;;
66575;SDS011;53428;47.686;16.584;2022-11-21T04:58:25;79.95;;;29.58;;
66575;SDS011;53428;47.686;16.584;2022-11-21T05:03:24;49.70;;;18.75;;
66575;SDS011;53428;47.686;16.584;2022-11-21T05:08:24;36.80;;;18.05;;
66575;SDS011;53428;47.686;16.584;2022-11-21T05:13:23;36.25;;;17.80;;
66575;SDS011;53428;47.686;16.584;2022-11-21T05:18:22;65.97;;;26.67;;
66575;SDS011;53428;47.686;16.584;2022-11-21T05:23:22;43.78;;;17.95;;
66575;SDS011;53428;47.686;16.584;2022-11-21T05:28:22;31.30;;;13.98;;
66575;SDS011;53428;47.686;16.584;2022-11-21T05:33:21;16.55;;;8.50;;
66575;SDS011;53428;47.686;16.584;2022-11-21T05:38:21;17.25;;;8.32;;
66575;SDS011;53428;47.686;16.584;2022-11-21T05:43:20;18.48;;;8.52;;
66575;SDS011;53428;47.686;16.584;2022-11-21T05:48:38;19.92;;;9.20;;
66575;SDS011;53428;47.686;16.584;2022-11-21T05:53:38;19.50;;;8.75;;
66575;SDS011;53428;47.686;16.584;2022-11-21T05:58:37;20.08;;;9.00;;
66575;SDS011;53428;47.686;16.584;2022-11-21T06:03:37;17.10;;;8.38;;
66575;SDS011;53428;47.686;16.584;2022-11-21T06:08:39;20.52;;;10.40;;
66575;SDS011;53428;47.686;16.584;2022-11-21T06:13:44;18.48;;;9.50;;
66575;SDS011;53428;47.686;16.584;2022-11-21T06:18:44;48.80;;;18.13;;
66575;SDS011;53428;47.686;16.584;2022-11-21T06:23:44;49.33;;;19.77;;
66575;SDS011;53428;47.686;16.584;2022-11-21T06:28:45;32.20;;;13.18;;
66575;SDS011;53428;47.686;16.584;2022-11-21T06:33:44;13.80;;;7.95;;
66575;SDS011;53428;47.686;16.584;2022-11-21T06:38:44;17.20;;;10.40;;
66575;SDS011;53428;47.686;16.584;2022-11-21T06:43:44;32.58;;;13.45;;
66575;SDS011;53428;47.686;16.584;2022-11-21T06:48:44;22.45;;;10.27;;
66575;SDS011;53428;47.686;16.584;2022-11-21T06:53:44;17.17;;;9.38;;
66575;SDS011;53428;47.686;16.584;2022-11-21T06:58:44;18.25;;;9.60;;
66575;SDS011;53428;47.686;16.584;2022-11-21T07:03:43;25.92;;;11.43;;
66575;SDS011;53428;47.686;16.584;2022-11-21T07:08:43;29.13;;;12.02;;
66575;SDS011;53428;47.686;16.584;2022-11-21T07:13:42;24.45;;;11.90;;
66575;SDS011;53428;47.686;16.584;2022-11-21T07:18:42;24.13;;;12.55;;
66575;SDS011;53428;47.686;16.584;2022-11-21T07:23:42;26.25;;;13.27;;
66575;SDS011;53428;47.686;16.584;2022-11-21T07:28:41;24.80;;;13.25;;
66575;SDS011;53428;47.686;16.584;2022-11-21T07:33:41;21.98;;;12.07;;
66575;SDS011;53428;47.686;16.584;2022-11-21T07:38:45;27.48;;;13.45;;
66575;SDS011;53428;47.686;16.584;2022-11-21T07:43:45;29.02;;;12.48;;
66575;SDS011;53428;47.686;16.584;2022-11-21T07:48:44;19.42;;;11.88;;
66575;SDS011;53428;47.686;16.584;2022-11-21T07:53:44;29.67;;;13.90;;
66575;SDS011;53428;47.686;16.584;2022-11-21T07:58:43;22.60;;;12.85;;
66575;SDS011;53428;47.686;16.584;2022-11-21T08:03:42;23.08;;;12.05;;
66575;SDS011;53428;47.686;16.584;2022-11-21T08:08:42;22.02;;;12.45;;
66575;SDS011;53428;47.686;16.584;2022-11-21T08:13:41;31.45;;;15.38;;
66575;SDS011;53428;47.686;16.584;2022-11-21T08:18:40;34.58;;;18.95;;
66575;SDS011;53428;47.686;16.584;2022-11-21T08:23:39;35.38;;;19.73;;
66575;SDS011;53428;47.686;16.584;2022-11-21T08:28:39;33.10;;;20.98;;
66575;SDS011;53428;47.686;16.584;2022-11-21T08:33:38;41.85;;;20.73;;
66575;SDS011;53428;47.686;16.584;2022-11-21T08:38:37;41.58;;;20.98;;
66575;SDS011;53428;47.686;16.584;2022-11-21T08:43:36;46.13;;;19.83;;
66575;SDS011;53428;47.686;16.584;2022-11-21T08:48:36;41.05;;;17.30;;
66575;SDS011;53428;47.686;16.584;2022-11-21T08:53:35;29.83;;;13.63;;
66575;SDS011;53428;47.686;16.584;2022-11-21T08:58:34;21.88;;;12.30;;
66575;SDS011;53428;47.686;16.584;2022-11-21T09:03:33;20.83;;;11.55;;
66575;SDS011;53428;47.686;16.584;2022-11-21T09:08:33;27.90;;;11.48;;
66575;SDS011;53428;47.686;16.584;2022-11-21T09:13:33;25.33;;;9.63;;
66575;SDS011;53428;47.686;16.584;2022-11-21T09:18:32;18.58;;;9.10;;
66575;SDS011;53428;47.686;16.584;2022-11-21T09:23:32;15.82;;;9.73;;
66575;SDS011;53428;47.686;16.584;2022-11-21T09:28:31;22.98;;;9.25;;
66575;SDS011;53428;47.686;16.584;2022-11-21T09:33:30;18.65;;;10.18;;
66575;SDS011;53428;47.686;16.584;2022-11-21T09:38:30;24.95;;;10.68;;
66575;SDS011;53428;47.686;16.584;2022-11-21T09:44:12;26.52;;;11.25;;
66575;SDS011;53428;47.686;16.584;2022-11-21T09:49:00;16.83;;;8.73;;
66575;SDS011;53428;47.686;16.584;2022-11-21T09:54:27;15.07;;;9.63;;
66575;SDS011;53428;47.686;16.584;2022-11-21T10:04:35;10.48;;;4.90;;
66575;SDS011;53428;47.686;16.584;2022-11-21T10:25:36;16.45;;;5.50;;
66575;SDS011;53428;47.686;16.584;2022-11-21T10:30:38;12.00;;;6.18;;
66575;SDS011;53428;47.686;16.584;2022-11-21T10:35:43;18.75;;;5.50;;
66575;SDS011;53428;47.686;16.584;2022-11-21T10:41:05;8.10;;;3.45;;
66575;SDS011;53428;47.686;16.584;2022-11-21T10:46:12;7.32;;;3.42;;
66575;SDS011;53428;47.686;16.584;2022-11-21T10:56:14;4.72;;;2.10;;
66575;SDS011;53428;47.686;16.584;2022-11-21T11:01:24;2.40;;;1.98;;
66575;SDS011;53428;47.686;16.584;2022-11-21T11:06:27;4.88;;;2.65;;
66575;SDS011;53428;47.686;16.584;2022-11-21T11:11:27;2.15;;;1.70;;
66575;SDS011;53428;47.686;16.584;2022-11-21T11:16:27;1.95;;;1.48;;
66575;SDS011;53428;47.686;16.584;2022-11-21T11:21:28;3.25;;;2.03;;
66575;SDS011;53428;47.686;16.584;2022-11-21T11:32:00;4.10;;;2.17;;
66575;SDS011;53428;47.686;16.584;2022-11-21T11:37:13;2.10;;;1.38;;
66575;SDS011;53428;47.686;16.584;2022-11-21T11:47:56;8.52;;;4.30;;
66575;SDS011;53428;47.686;16.584;2022-11-21T11:53:14;8.90;;;3.92;;
66575;SDS011;53428;47.686;16.584;2022-11-21T12:08:45;4.35;;;1.88;;
66575;SDS011;53428;47.686;16.584;2022-11-21T12:13:50;4.63;;;2.00;;
66575;SDS011;53428;47.686;16.584;2022-11-21T12:18:59;4.30;;;2.83;;
66575;SDS011;53428;47.686;16.584;2022-11-21T12:24:07;3.38;;;2.45;;
66575;SDS011;53428;47.686;16.584;2022-11-21T12:50:18;4.70;;;3.10;;
66575;SDS011;53428;47.686;16.584;2022-11-21T12:55:41;7.18;;;3.50;;
66575;SDS011;53428;47.686;16.584;2022-11-21T13:05:59;9.13;;;3.83;;
66575;SDS011;53428;47.686;16.584;2022-11-21T13:16:21;6.68;;;4.43;;
66575;SDS011;53428;47.686;16.584;2022-11-21T13:21:44;16.15;;;6.68;;
66575;SDS011;53428;47.686;16.584;2022-11-21T13:26:50;21.75;;;9.07;;
66575;SDS011;53428;47.686;16.584;2022-11-21T13:31:51;13.57;;;7.80;;
66575;SDS011;53428;47.686;16.584;2022-11-21T13:36:50;11.98;;;7.65;;
66575;SDS011;53428;47.686;16.584;2022-11-21T14:13:19;9.50;;;5.43;;
66575;SDS011;53428;47.686;16.584;2022-11-21T14:18:27;11.15;;;7.15;;
66575;SDS011;53428;47.686;16.584;2022-11-21T14:23:29;17.63;;;9.00;;
66575;SDS011;53428;47.686;16.584;2022-11-21T14:28:32;22.88;;;12.52;;
66575;SDS011;53428;47.686;16.584;2022-11-21T14:38:39;23.92;;;14.40;;
66575;SDS011;53428;47.686;16.584;2022-11-21T14:43:41;20.13;;;13.23;;
66575;SDS011;53428;47.686;16.584;2022-11-21T14:48:40;21.25;;;13.30;;
66575;SDS011;53428;47.686;16.584;2022-11-21T14:53:40;24.50;;;13.82;;
66575;SDS011;53428;47.686;16.584;2022-11-21T14:58:41;23.70;;;12.88;;
66575;SDS011;53428;47.686;16.584;2022-11-21T15:03:40;52.03;;;27.60;;
66575;SDS011;53428;47.686;16.584;2022-11-21T15:08:56;65.07;;;32.30;;
66575;SDS011;53428;47.686;16.584;2022-11-21T15:13:56;119.90;;;48.13;;
66575;SDS011;53428;47.686;16.584;2022-11-21T15:19:00;56.83;;;26.20;;
66575;SDS011;53428;47.686;16.584;2022-11-21T15:24:17;45.53;;;21.63;;
66575;SDS011;53428;47.686;16.584;2022-11-21T15:29:25;37.33;;;19.67;;
66575;SDS011;53428;47.686;16.584;2022-11-21T15:34:31;40.90;;;21.90;;
66575;SDS011;53428;47.686;16.584;2022-11-21T15:39:30;39.25;;;22.77;;
66575;SDS011;53428;47.686;16.584;2022-11-21T15:44:35;44.30;;;22.55;;
66575;SDS011;53428;47.686;16.584;2022-11-21T15:49:35;46.85;;;24.10;;
66575;SDS011;53428;47.686;16.584;2022-11-21T15:54:34;47.17;;;23.77;;
66575;SDS011;53428;47.686;16.584;2022-11-21T15:59:34;45.30;;;23.95;;
66575;SDS011;53428;47.686;16.584;2022-11-21T16:04:33;67.75;;;33.97;;
66575;SDS011;53428;47.686;16.584;2022-11-21T16:09:32;65.90;;;36.47;;
66575;SDS011;53428;47.686;16.584;2022-11-21T16:14:32;71.07;;;36.92;;
66575;SDS011;53428;47.686;16.584;2022-11-21T16:19:31;72.57;;;37.47;;
66575;SDS011;53428;47.686;16.584;2022-11-21T16:24:30;88.55;;;42.63;;
66575;SDS011;53428;47.686;16.584;2022-11-21T16:29:30;90.45;;;44.08;;
66575;SDS011;53428;47.686;16.584;2022-11-21T16:34:29;95.03;;;46.45;;
66575;SDS011;53428;47.686;16.584;2022-11-21T16:39:30;102.35;;;47.55;;
66575;SDS011;53428;47.686;16.584;2022-11-21T16:44:30;86.95;;;43.65;;
66575;SDS011;53428;47.686;16.584;2022-11-21T16:49:29;99.50;;;46.75;;
66575;SDS011;53428;47.686;16.584;2022-11-21T16:54:28;81.45;;;42.17;;
66575;SDS011;53428;47.686;16.584;2022-11-21T16:59:27;74.70;;;39.80;;
66575;SDS011;53428;47.686;16.584;2022-11-21T17:04:27;81.28;;;41.78;;
66575;SDS011;53428;47.686;16.584;2022-11-21T17:09:26;65.60;;;36.08;;
66575;SDS011;53428;47.686;16.584;2022-11-21T17:14:25;68.63;;;33.42;;
66575;SDS011;53428;47.686;16.584;2022-11-21T17:19:25;72.93;;;37.88;;
66575;SDS011;53428;47.686;16.584;2022-11-21T17:24:25;87.10;;;41.30;;
66575;SDS011;53428;47.686;16.584;2022-11-21T17:29:25;101.03;;;48.28;;
66575;SDS011;53428;47.686;16.584;2022-11-21T17:34:25;122.20;;;51.22;;
66575;SDS011;53428;47.686;16.584;2022-11-21T17:39:24;118.80;;;49.83;;
66575;SDS011;53428;47.686;16.584;2022-11-21T17:44:24;154.25;;;59.72;;
66575;SDS011;53428;47.686;16.584;2022-11-21T17:49:23;156.20;;;66.93;;
66575;SDS011;53428;47.686;16.584;2022-11-21T17:54:24;138.02;;;62.95;;
66575;SDS011;53428;47.686;16.584;2022-11-21T17:59:23;145.30;;;66.70;;
66575;SDS011;53428;47.686;16.584;2022-11-21T18:04:23;87.78;;;45.58;;
66575;SDS011;53428;47.686;16.584;2022-11-21T18:09:22;79.70;;;39.45;;
66575;SDS011;53428;47.686;16.584;2022-11-21T18:14:21;77.18;;;40.03;;
66575;SDS011;53428;47.686;16.584;2022-11-21T18:19:20;104.97;;;47.67;;
66575;SDS011;53428;47.686;16.584;2022-11-21T18:24:20;109.82;;;48.53;;
66575;SDS011;53428;47.686;16.584;2022-11-21T18:29:19;135.90;;;54.60;;
66575;SDS011;53428;47.686;16.584;2022-11-21T18:34:20;101.13;;;44.97;;
66575;SDS011;53428;47.686;16.584;2022-11-21T18:39:19;108.88;;;47.30;;
66575;SDS011;53428;47.686;16.584;2022-11-21T18:44:20;105.63;;;51.10;;
66575;SDS011;53428;47.686;16.584;2022-11-21T18:49:20;133.68;;;58.88;;
66575;SDS011;53428;47.686;16.584;2022-11-21T18:54:19;134.07;;;55.58;;
66575;SDS011;53428;47.686;16.584;2022-11-21T18:59:18;119.80;;;55.95;;
66575;SDS011;53428;47.686;16.584;2022-11-21T19:04:17;141.65;;;59.53;;
66575;SDS011;53428;47.686;16.584;2022-11-21T19:09:17;142.15;;;64.25;;
66575;SDS011;53428;47.686;16.584;2022-11-21T19:14:16;108.93;;;50.97;;
66575;SDS011;53428;47.686;16.584;2022-11-21T19:19:15;120.55;;;53.78;;
66575;SDS011;53428;47.686;16.584;2022-11-21T19:24:15;115.53;;;52.80;;
66575;SDS011;53428;47.686;16.584;2022-11-21T19:29:14;154.45;;;72.00;;
66575;SDS011;53428;47.686;16.584;2022-11-21T19:34:14;153.73;;;67.28;;
66575;SDS011;53428;47.686;16.584;2022-11-21T19:39:13;139.00;;;60.85;;
66575;SDS011;53428;47.686;16.584;2022-11-21T19:44:15;127.93;;;52.08;;
66575;SDS011;53428;47.686;16.584;2022-11-21T19:49:14;177.00;;;48.05;;
66575;SDS011;53428;47.686;16.584;2022-11-21T19:54:17;199.57;;;45.95;;
66575;SDS011;53428;47.686;16.584;2022-11-21T19:59:16;1127.93;;;149.60;;
66575;SDS011;53428;47.686;16.584;2022-11-21T20:04:15;193.18;;;56.45;;
66575;SDS011;53428;47.686;16.584;2022-11-21T20:09:18;165.40;;;58.22;;
66575;SDS011;53428;47.686;16.584;2022-11-21T20:19:19;111.57;;;48.30;;
66575;SDS011;53428;47.686;16.584;2022-11-21T20:24:22;107.03;;;48.17;;
66575;SDS011;53428;47.686;16.584;2022-11-21T20:29:21;111.53;;;47.90;;
66575;SDS011;53428;47.686;16.584;2022-11-21T20:34:23;111.88;;;46.28;;
66575;SDS011;53428;47.686;16.584;2022-11-21T20:39:22;88.88;;;40.95;;
66575;SDS011;53428;47.686;16.584;2022-11-21T20:44:23;76.45;;;34.83;;
66575;SDS011;53428;47.686;16.584;2022-11-21T20:49:22;77.78;;;35.40;;
66575;SDS011;53428;47.686;16.584;2022-11-21T20:54:21;70.93;;;30.45;;
66575;SDS011;53428;47.686;16.584;2022-11-21T20:59:21;62.05;;;27.70;;
66575;SDS011;53428;47.686;16.584;2022-11-21T21:04:20;52.10;;;25.48;;
66575;SDS011;53428;47.686;16.584;2022-11-21T21:09:19;44.45;;;21.40;;
66575;SDS011;53428;47.686;16.584;2022-11-21T21:14:20;49.58;;;22.75;;
66575;SDS011;53428;47.686;16.584;2022-11-21T21:19:20;52.00;;;21.75;;
66575;SDS011;53428;47.686;16.584;2022-11-21T21:24:19;47.72;;;21.13;;
66575;SDS011;53428;47.686;16.584;2022-11-21T21:29:19;62.50;;;23.25;;
66575;SDS011;53428;47.686;16.584;2022-11-21T21:34:19;58.22;;;21.33;;
66575;SDS011;53428;47.686;16.584;2022-11-21T21:39:19;44.65;;;18.40;;
66575;SDS011;53428;47.686;16.584;2022-11-21T21:44:19;54.58;;;19.73;;
66575;SDS011;53428;47.686;16.584;2022-11-21T21:49:18;61.50;;;24.75;;
66575;SDS011;53428;47.686;16.584;2022-11-21T21:54:18;68.10;;;25.10;;
66575;SDS011;53428;47.686;16.584;2022-11-21T21:59:18;64.55;;;24.60;;
66575;SDS011;53428;47.686;16.584;2022-11-21T22:04:18;74.85;;;23.10;;
66575;SDS011;53428;47.686;16.584;2022-11-21T22:09:17;62.58;;;22.58;;
66575;SDS011;53428;47.686;16.584;2022-11-21T22:14:17;98.63;;;25.63;;
66575;SDS011;53428;47.686;16.584;2022-11-21T22:19:16;65.65;;;23.65;;
66575;SDS011;53428;47.686;16.584;2022-11-21T22:24:16;71.53;;;24.33;;
66575;SDS011;53428;47.686;16.584;2022-11-21T22:29:15;66.60;;;23.08;;
66575;SDS011;53428;47.686;16.584;2022-11-21T22:34:15;62.33;;;22.70;;
66575;SDS011;53428;47.686;16.584;2022-11-21T22:39:14;68.70;;;23.00;;
66575;SDS011;53428;47.686;16.584;2022-11-21T22:44:14;62.42;;;24.08;;
66575;SDS011;53428;47.686;16.584;2022-11-21T22:49:13;65.70;;;22.38;;
66575;SDS011;53428;47.686;16.584;2022-11-21T22:54:13;63.00;;;24.15;;
66575;SDS011;53428;47.686;16.584;2022-11-21T22:59:13;81.93;;;24.20;;
66575;SDS011;53428;47.686;16.584;2022-11-21T23:04:12;71.53;;;24.70;;
66575;SDS011;53428;47.686;16.584;2022-11-21T23:09:12;58.92;;;22.35;;
66575;SDS011;53428;47.686;16.584;2022-11-21T23:14:11;64.93;;;23.75;;
66575;SDS011;53428;47.686;16.584;2022-11-21T23:19:11;48.67;;;20.40;;
66575;SDS011;53428;47.686;16.584;2022-11-21T23:24:10;52.78;;;20.15;;
66575;SDS011;53428;47.686;16.584;2022-11-21T23:29:10;46.65;;;18.67;;
66575;SDS011;53428;47.686;16.584;2022-11-21T23:34:10;45.53;;;17.77;;
66575;SDS011;53428;47.686;16.584;2022-11-21T23:39:09;43.95;;;15.82;;
66575;SDS011;53428;47.686;16.584;2022-11-21T23:44:09;39.63;;;16.45;;
66575;SDS011;53428;47.686;16.584;2022-11-21T23:49:08;42.70;;;15.75;;
66575;SDS011;53428;47.686;16.584;2022-11-21T23:54:07;42.47;;;17.05;;
66575;SDS011;53428;47.686;16.584;2022-11-21T23:59:06;38.75;;;15.80;;
